This is the latest recevied weather packets stored in our database for station/object WB0OCV. If no packets are shown the sender has not sent any weather packets the latest 1 day(s).
| Time | Temp. | Humidity | Pressure | Rain* | Wind** | Luminosity | Snow |
|---|---|---|---|---|---|---|---|
| 1778036024 | 14.44° C | 85% | 1015.9 hPa | 0 mm | 2.24 m/s, 214° | 0 W/m² | - |
| 1778035721 | 14.44° C | 85% | 1015.9 hPa | 0 mm | 0.89 m/s, 215° | 0 W/m² | - |
| 1778035418 | 13.89° C | 86% | 1015.9 hPa | 0 mm | 1.34 m/s, 157° | 0 W/m² | - |
| 1778035114 | 13.89° C | 85% | 1015.7 hPa | 0 mm | 0.89 m/s, 196° | 0 W/m² | - |
| 1778034811 | 13.89° C | 85% | 1015.9 hPa | 0 mm | 0.45 m/s, 116° | 0 W/m² | - |
| 1778034508 | 13.89° C | 85% | 1016 hPa | 0 mm | 0.45 m/s, 183° | 0 W/m² | - |
| 1778034205 | 13.89° C | 85% | 1016.1 hPa | 0 mm | 0.89 m/s, 192° | 0 W/m² | - |
| 1778033904 | 13.89° C | 85% | 1016 hPa | 0 mm | 0.89 m/s, 169° | 0 W/m² | - |
| 1778033600 | 13.89° C | 85% | 1016 hPa | 0 mm | 1.79 m/s, 239° | 0 W/m² | - |
| 1778033297 | 13.89° C | 84% | 1016.2 hPa | 0 mm | 0.45 m/s, 104° | 0 W/m² | - |
| 1778032995 | 13.89° C | 85% | 1016.1 hPa | 0 mm | 0.45 m/s, 103° | 0 W/m² | - |
| 1778032692 | 13.89° C | 84% | 1016.2 hPa | 0 mm | 0.89 m/s, 188° | 0 W/m² | - |
| 1778032390 | 13.33° C | 84% | 1016.2 hPa | 0 mm | 0.45 m/s, 158° | 0 W/m² | - |
| 1778032086 | 13.33° C | 83% | 1016.2 hPa | 0 mm | 0 m/s | 0 W/m² | - |
| 1778031783 | 13.33° C | 83% | 1016.2 hPa | 0 mm | 0.45 m/s, 130° | 0 W/m² | - |
| 1778031480 | 13.33° C | 82% | 1016.1 hPa | 0 mm | 0.89 m/s, 154° | 0 W/m² | - |
| 1778031177 | 13.33° C | 82% | 1016.1 hPa | 0 mm | 0.45 m/s, 157° | 0 W/m² | - |
| 1778030873 | 13.89° C | 81% | 1016.3 hPa | 0 mm | 0 m/s | 0 W/m² | - |
| 1778030570 | 13.89° C | 81% | 1016.1 hPa | 0 mm | 0.45 m/s, 133° | 0 W/m² | - |
| 1778030268 | 13.33° C | 81% | 1015.9 hPa | 0 mm | 0.89 m/s, 92° | 0 W/m² | - |
| 1778029964 | 13.89° C | 80% | 1016 hPa | 0 mm | 0.89 m/s, 177° | 0 W/m² | - |
| 1778029662 | 13.89° C | 79% | 1015.8 hPa | 0 mm | 1.79 m/s, 249° | 0 W/m² | - |
| 1778029359 | 13.33° C | 79% | 1016 hPa | 0 mm | 0.89 m/s, 209° | 0 W/m² | - |
| 1778029057 | 13.89° C | 78% | 1015.7 hPa | 0 mm | 0.45 m/s, 110° | 0 W/m² | - |
| 1778028753 | 13.33° C | 78% | 1015.9 hPa | 0 mm | 0.89 m/s, 238° | 0 W/m² | - |
* Rain latest hour (hover to see other rain measurements)
** Current wind speed in m/s (hover to see current wind gust speed)